Time,TemperatureF,DewpointF,PressureIn,WindDirection,WindDirectionDegrees,WindSpeedMPH,WindSpeedGustMPH,Humidity,HourlyPrecipIn,Conditions,Clouds,dailyrainin,SoftwareType,DateUTC
2013-03-05 00:03:00,23.5,19.7,29.97,ESE,112,6.1,8.1,85,0.00,CLR,CLR,0.00,WeatherDisplay:10.37,2013-03-05 06:03:00,
2013-03-05 00:09:00,23.5,19.7,29.97,ESE,112,6.6,10.4,85,0.00,CLR,CLR,0.00,WeatherDisplay:10.37,2013-03-05 06:09:00,
2013-03-05 00:14:00,23.5,19.7,29.98,East,90,8.1,10.1,85,0.00,CLR,CLR,0.00,WeatherDisplay:10.37,2013-03-05 06:14:00,
2013-03-05 00:19:00,23.5,19.7,29.97,ESE,112,7.2,9.2,85,0.00,CLR,CLR,0.00,WeatherDisplay:10.37,2013-03-05 06:19:00,
2013-03-05 00:24:00,23.5,19.7,29.97,East,90,7.1,9.2,85,0.00,CLR,CLR,0.00,WeatherDisplay:10.37,2013-03-05 06:24:00,
2013-03-05 00:30:00,23.5,19.7,29.97,ESE,112,5.0,7.4,85,0.00,CLR,CLR,0.00,WeatherDisplay:10.37,2013-03-05 06:30:00,
2013-03-05 00:35:00,23.5,19.7,29.97,ESE,112,7.8,9.6,85,0.00,CLR,CLR,0.00,WeatherDisplay:10.37,2013-03-05 06:35:00,
2013-03-05 00:40:00,23.5,19.7,29.97,East,90,5.7,6.7,85,0.00,CLR,CLR,0.00,WeatherDisplay:10.37,2013-03-05 06:40:00,
2013-03-05 00:45:00,23.5,19.7,29.98,East,90,7.9,10.4,85,0.00,CLR,CLR,0.00,WeatherDisplay:10.37,2013-03-05 06:45:00,
2013-03-05 00:50:00,23.5,19.7,29.97,East,90,8.5,10.4,85,0.00,CLR,CLR,0.00,WeatherDisplay:10.37,2013-03-05 06:50:00,
2013-03-05 00:56:00,23.5,19.7,29.97,ESE,112,7.0,8.1,85,0.00,CLR,CLR,0.00,WeatherDisplay:10.37,2013-03-05 06:56:00,
2013-03-05 01:01:00,23.5,19.7,29.97,East,90,6.8,6.9,85,0.00,CLR,CLR,0.00,WeatherDisplay:10.37,2013-03-05 07:01:00,
2013-03-05 01:06:00,23.5,19.7,29.97,ESE,112,6.5,9.2,85,0.00,CLR,CLR,0.00,WeatherDisplay:10.37,2013-03-05 07:06:00,
2013-03-05 01:12:00,23.5,19.7,29.97,ESE,112,7.7,9.2,85,0.00,CLR,CLR,0.00,WeatherDisplay:10.37,2013-03-05 07:12:00,
2013-03-05 01:17:00,23.5,19.7,29.96,ESE,112,6.8,10.4,85,0.00,CLR,CLR,0.00,WeatherDisplay:10.37,2013-03-05 07:17:00,
2013-03-05 01:22:00,23.5,19.7,29.97,ESE,112,7.3,9.2,85,0.00,CLR,CLR,0.00,WeatherDisplay:10.37,2013-03-05 07:22:00,
2013-03-05 01:27:00,23.5,19.7,29.97,East,90,5.6,6.9,85,0.00,CLR,CLR,0.00,WeatherDisplay:10.37,2013-03-05 07:27:00,
2013-03-05 01:32:00,23.5,19.7,29.97,ESE,112,6.8,8.1,85,0.00,CLR,CLR,0.00,WeatherDisplay:10.37,2013-03-05 07:32:00,
2013-03-05 01:38:00,23.5,19.7,29.97,East,90,6.0,9.2,85,0.00,CLR,CLR,0.00,WeatherDisplay:10.37,2013-03-05 07:38:00,
2013-03-05 01:43:00,23.5,19.7,29.97,East,90,9.3,11.5,85,0.00,CLR,CLR,0.00,WeatherDisplay:10.37,2013-03-05 07:43:00,
2013-03-05 01:48:00,23.5,19.7,29.97,ESE,112,6.2,9.2,85,0.00,CLR,CLR,0.00,WeatherDisplay:10.37,2013-03-05 07:48:00,
2013-03-05 01:53:00,23.5,19.7,29.97,ESE,112,7.7,8.5,85,0.00,CLR,CLR,0.00,WeatherDisplay:10.37,2013-03-05 07:53:00,
2013-03-05 01:59:00,23.7,19.9,29.97,East,90,5.9,6.9,85,0.00,CLR,CLR,0.00,WeatherDisplay:10.37,2013-03-05 07:59:00,
2013-03-05 02:04:00,23.7,19.9,29.97,ESE,112,5.7,9.2,85,0.00,CLR,CLR,0.00,WeatherDisplay:10.37,2013-03-05 08:04:00,
2013-03-05 02:09:00,23.7,19.9,29.97,ESE,112,5.4,9.2,85,0.00,CLR,CLR,0.00,WeatherDisplay:10.37,2013-03-05 08:09:00,
2013-03-05 02:14:00,23.7,19.9,29.97,ESE,112,4.2,4.6,85,0.00,CLR,CLR,0.00,WeatherDisplay:10.37,2013-03-05 08:14:00,
2013-03-05 02:20:00,23.9,20.0,29.96,ESE,112,7.8,9.2,85,0.00,CLR,CLR,0.00,WeatherDisplay:10.37,2013-03-05 08:20:00,
2013-03-05 02:25:00,23.9,20.0,29.96,East,90,7.9,10.1,85,0.00,CLR,CLR,0.00,WeatherDisplay:10.37,2013-03-05 08:25:00,
2013-03-05 02:30:00,23.9,20.0,29.96,East,90,4.0,6.9,85,0.00,CLR,CLR,0.00,WeatherDisplay:10.37,2013-03-05 08:30:00,
2013-03-05 02:35:00,23.9,20.0,29.96,ESE,112,5.3,8.1,85,0.00,CLR,CLR,0.00,WeatherDisplay:10.37,2013-03-05 08:35:00,
2013-03-05 02:40:00,23.9,20.0,29.96,ENE,68,6.0,6.9,85,0.00,CLR,CLR,0.00,WeatherDisplay:10.37,2013-03-05 08:40:00,
2013-03-05 02:46:00,23.9,20.0,29.96,ENE,68,4.2,6.9,85,0.00,CLR,CLR,0.00,WeatherDisplay:10.37,2013-03-05 08:46:00,
2013-03-05 02:51:00,23.9,20.3,29.96,East,90,6.9,9.6,86,0.00,CLR,CLR,0.00,WeatherDisplay:10.37,2013-03-05 08:51:00,
2013-03-05 02:56:00,23.9,20.3,29.96,East,90,3.7,5.8,86,0.00,CLR,CLR,0.00,WeatherDisplay:10.37,2013-03-05 08:56:00,
2013-03-05 03:01:00,23.9,20.3,29.96,East,90,3.4,9.2,86,0.00,CLR,CLR,0.00,WeatherDisplay:10.37,2013-03-05 09:01:00,
2013-03-05 03:06:00,23.9,20.3,29.96,East,90,4.5,9.2,86,0.00,CLR,CLR,0.00,WeatherDisplay:10.37,2013-03-05 09:06:00,
2013-03-05 03:12:00,23.9,20.3,29.96,ESE,112,4.8,6.9,86,0.00,CLR,CLR,0.00,WeatherDisplay:10.37,2013-03-05 09:12:00,
2013-03-05 03:17:00,23.9,20.3,29.96,East,90,6.5,9.2,86,0.00,CLR,CLR,0.00,WeatherDisplay:10.37,2013-03-05 09:17:00,
2013-03-05 03:22:00,23.9,20.3,29.96,ENE,68,3.7,5.8,86,0.00,CLR,CLR,0.00,WeatherDisplay:10.37,2013-03-05 09:22:00,
2013-03-05 03:27:00,23.9,20.0,29.96,ENE,68,3.4,4.7,85,0.00,CLR,CLR,0.00,WeatherDisplay:10.37,2013-03-05 09:27:00,
2013-03-05 03:33:00,23.9,20.3,29.96,East,90,5.4,6.9,86,0.00,CLR,CLR,0.00,WeatherDisplay:10.37,2013-03-05 09:33:00,
2013-03-05 03:38:00,23.9,20.3,29.95,East,90,6.9,9.2,86,0.00,CLR,CLR,0.00,WeatherDisplay:10.37,2013-03-05 09:38:00,
2013-03-05 03:43:00,23.9,20.3,29.96,East,90,7.7,9.2,86,0.00,CLR,CLR,0.00,WeatherDisplay:10.37,2013-03-05 09:43:00,
2013-03-05 03:48:00,23.9,20.3,29.96,ENE,68,5.6,8.1,86,0.00,CLR,CLR,0.00,WeatherDisplay:10.37,2013-03-05 09:48:00,
2013-03-05 03:54:00,23.9,20.3,29.96,East,90,5.6,8.1,86,0.00,CLR,CLR,0.00,WeatherDisplay:10.37,2013-03-05 09:54:00,
2013-03-05 03:59:00,23.9,20.3,29.96,East,90,5.9,6.9,86,0.00,CLR,CLR,0.00,WeatherDisplay:10.37,2013-03-05 09:59:00,
2013-03-05 04:04:00,23.9,20.3,29.96,ESE,112,3.8,7.4,86,0.00,CLR,CLR,0.00,WeatherDisplay:10.37,2013-03-05 10:04:00,
2013-03-05 04:09:00,23.9,20.3,29.96,ESE,112,4.3,5.8,86,0.00,CLR,CLR,0.00,WeatherDisplay:10.37,2013-03-05 10:09:00,
2013-03-05 04:14:00,23.9,20.3,29.96,East,90,6.2,10.4,86,0.00,CLR,CLR,0.00,WeatherDisplay:10.37,2013-03-05 10:14:00,
2013-03-05 04:19:00,23.7,20.1,29.96,ESE,112,5.4,6.9,86,0.00,CLR,CLR,0.00,WeatherDisplay:10.37,2013-03-05 10:19:00,
2013-03-05 04:24:00,23.7,20.1,29.97,East,90,4.5,6.9,86,0.00,CLR,CLR,0.00,WeatherDisplay:10.37,2013-03-05 10:24:00,
2013-03-05 04:29:00,23.7,20.1,29.97,ESE,112,6.8,9.2,86,0.00,CLR,CLR,0.00,WeatherDisplay:10.37,2013-03-05 10:29:00,
2013-03-05 04:35:00,23.7,20.1,29.97,ESE,112,4.3,6.9,86,0.00,CLR,CLR,0.00,WeatherDisplay:10.37,2013-03-05 10:35:00,
2013-03-05 04:40:00,23.7,20.1,29.97,ESE,112,5.1,8.1,86,0.00,CLR,CLR,0.00,WeatherDisplay:10.37,2013-03-05 10:40:00,
2013-03-05 04:45:00,23.7,20.1,29.97,ESE,112,4.6,5.8,86,0.00,CLR,CLR,0.00,WeatherDisplay:10.37,2013-03-05 10:45:00,
2013-03-05 04:50:00,23.7,20.1,29.98,East,90,4.2,4.6,86,0.00,CLR,CLR,0.00,WeatherDisplay:10.37,2013-03-05 10:50:00,
2013-03-05 04:56:00,23.7,20.1,29.97,East,90,7.7,10.4,86,0.00,CLR,CLR,0.00,WeatherDisplay:10.37,2013-03-05 10:56:00,
2013-03-05 05:01:00,23.7,20.1,29.98,East,90,6.1,7.8,86,0.00,CLR,CLR,0.00,WeatherDisplay:10.37,2013-03-05 11:01:00,
2013-03-05 05:06:00,23.7,20.1,29.98,ENE,68,6.1,10.5,86,0.00,CLR,CLR,0.00,WeatherDisplay:10.37,2013-03-05 11:06:00,
2013-03-05 05:11:00,23.7,20.1,29.98,East,90,8.2,9.2,86,0.00,CLR,CLR,0.00,WeatherDisplay:10.37,2013-03-05 11:11:00,
2013-03-05 05:17:00,23.5,20.0,29.97,East,90,5.7,9.2,86,0.00,CLR,CLR,0.00,WeatherDisplay:10.37,2013-03-05 11:17:00,
2013-03-05 05:22:00,23.5,20.0,29.98,ENE,68,5.7,5.7,86,0.00,CLR,CLR,0.00,WeatherDisplay:10.37,2013-03-05 11:22:00,
2013-03-05 05:27:00,23.5,20.0,29.98,ENE,68,4.4,5.8,86,0.00,CLR,CLR,0.00,WeatherDisplay:10.37,2013-03-05 11:27:00,
2013-03-05 05:32:00,23.5,20.0,29.98,East,90,6.0,8.1,86,0.00,CLR,CLR,0.00,WeatherDisplay:10.37,2013-03-05 11:32:00,
2013-03-05 05:37:00,23.5,20.0,29.98,NE,45,4.4,4.6,86,0.00,CLR,CLR,0.00,WeatherDisplay:10.37,2013-03-05 11:37:00,
2013-03-05 05:43:00,23.5,20.0,29.98,ENE,68,4.4,6.9,86,0.00,CLR,CLR,0.00,WeatherDisplay:10.37,2013-03-05 11:43:00,
2013-03-05 05:48:00,23.5,20.0,29.98,ENE,68,6.3,8.9,86,0.00,CLR,CLR,0.00,WeatherDisplay:10.37,2013-03-05 11:48:00,
2013-03-05 05:53:00,23.5,20.0,29.98,NNE,22,4.5,8.1,86,0.00,CLR,CLR,0.00,WeatherDisplay:10.37,2013-03-05 11:53:00,
2013-03-05 05:58:00,23.5,20.0,29.98,NE,45,4.2,8.1,86,0.00,CLR,CLR,0.00,WeatherDisplay:10.37,2013-03-05 11:58:00,
2013-03-05 06:03:00,23.5,20.0,29.98,ESE,112,3.8,5.8,86,0.00,CLR,CLR,0.00,WeatherDisplay:10.37,2013-03-05 12:03:00,
2013-03-05 06:08:00,23.5,20.0,29.99,ESE,112,3.9,4.7,86,0.00,CLR,CLR,0.00,WeatherDisplay:10.37,2013-03-05 12:08:00,
2013-03-05 06:14:00,23.5,20.0,29.99,East,90,5.1,8.1,86,0.00,CLR,CLR,0.00,WeatherDisplay:10.37,2013-03-05 12:14:00,
2013-03-05 06:19:00,23.5,20.0,29.99,ENE,68,5.3,5.8,86,0.00,CLR,CLR,0.00,WeatherDisplay:10.37,2013-03-05 12:19:00,
2013-03-05 06:24:00,23.5,19.7,30.00,East,90,3.7,6.9,85,0.00,CLR,CLR,0.00,WeatherDisplay:10.37,2013-03-05 12:24:00,
2013-03-05 06:29:00,23.5,19.7,29.99,East,90,5.7,8.1,85,0.00,CLR,CLR,0.00,WeatherDisplay:10.37,2013-03-05 12:29:00,
2013-03-05 06:35:00,23.5,19.7,30.00,ENE,68,3.4,4.6,85,0.00,CLR,CLR,0.00,WeatherDisplay:10.37,2013-03-05 12:35:00,
2013-03-05 06:40:00,23.5,19.7,30.00,NE,45,3.3,8.1,85,0.00,CLR,CLR,0.00,WeatherDisplay:10.37,2013-03-05 12:40:00,
2013-03-05 06:45:00,23.4,19.5,30.00,ENE,68,3.7,3.7,85,0.00,CLR,CLR,0.00,WeatherDisplay:10.37,2013-03-05 12:45:00,
2013-03-05 06:50:00,23.4,19.5,30.00,NE,45,2.9,6.9,85,0.00,CLR,CLR,0.00,WeatherDisplay:10.37,2013-03-05 12:50:00,
2013-03-05 06:56:00,23.4,19.5,30.00,NE,45,3.8,6.3,85,0.00,CLR,CLR,0.00,WeatherDisplay:10.37,2013-03-05 12:56:00,
2013-03-05 07:01:00,23.5,19.7,30.00,ENE,68,2.0,4.6,85,0.00,CLR,CLR,0.00,WeatherDisplay:10.37,2013-03-05 13:01:00,
2013-03-05 07:06:00,23.5,19.7,30.01,NE,45,4.9,5.4,85,0.00,CLR,CLR,0.00,WeatherDisplay:10.37,2013-03-05 13:06:00,
2013-03-05 07:11:00,23.5,19.7,30.01,NNE,22,1.4,3.8,85,0.00,CLR,CLR,0.00,WeatherDisplay:10.37,2013-03-05 13:11:00,
2013-03-05 07:16:00,23.5,19.7,30.01,ENE,68,2.1,5.1,85,0.00,CLR,CLR,0.00,WeatherDisplay:10.37,2013-03-05 13:16:00,
2013-03-05 07:22:00,23.7,19.9,30.02,ESE,112,2.6,4.6,85,0.00,CLR,CLR,0.00,WeatherDisplay:10.37,2013-03-05 13:22:00,
2013-03-05 07:27:00,23.7,19.9,30.02,NE,45,1.6,4.0,85,0.00,CLR,CLR,0.00,WeatherDisplay:10.37,2013-03-05 13:27:00,
2013-03-05 07:32:00,24.1,20.2,30.02,ESE,112,8.3,8.3,85,0.00,CLR,CLR,0.00,WeatherDisplay:10.37,2013-03-05 13:32:00,
2013-03-05 07:37:00,24.1,20.2,30.02,NE,45,2.3,3.5,85,0.00,CLR,CLR,0.00,WeatherDisplay:10.37,2013-03-05 13:37:00,
2013-03-05 07:43:00,24.3,20.4,30.03,ENE,68,2.1,3.6,85,0.00,CLR,CLR,0.00,WeatherDisplay:10.37,2013-03-05 13:43:00,
2013-03-05 07:48:00,24.4,20.6,30.02,North,0,3.9,5.8,85,0.00,CLR,CLR,0.00,WeatherDisplay:10.37,2013-03-05 13:48:00,
2013-03-05 07:53:00,24.1,19.9,30.02,NNE,22,3.7,5.8,84,0.00,CLR,CLR,0.00,WeatherDisplay:10.37,2013-03-05 13:53:00,
2013-03-05 07:58:00,24.1,20.2,30.03,NNE,22,2.7,4.6,85,0.00,CLR,CLR,0.00,WeatherDisplay:10.37,2013-03-05 13:58:00,
2013-03-05 08:04:00,24.3,20.1,30.03,NNE,22,3.3,3.6,84,0.00,CLR,CLR,0.00,WeatherDisplay:10.37,2013-03-05 14:04:00,
2013-03-05 08:09:00,24.4,20.6,30.03,NNE,22,3.0,4.6,85,0.00,CLR,CLR,0.00,WeatherDisplay:10.37,2013-03-05 14:09:00,
2013-03-05 08:14:00,24.6,20.5,30.03,NNW,338,4.2,4.6,84,0.00,CLR,CLR,0.00,WeatherDisplay:10.37,2013-03-05 14:14:00,
2013-03-05 08:19:00,25.0,20.8,30.04,NNE,22,4.1,4.6,84,0.00,CLR,CLR,0.00,WeatherDisplay:10.37,2013-03-05 14:19:00,
2013-03-05 08:25:00,25.0,20.8,30.04,North,0,4.0,4.6,84,0.00,CLR,CLR,0.00,WeatherDisplay:10.37,2013-03-05 14:25:00,
2013-03-05 08:30:00,25.3,21.2,30.04,NNE,22,3.4,5.4,84,0.00,CLR,CLR,0.00,WeatherDisplay:10.37,2013-03-05 14:30:00,
2013-03-05 08:35:00,25.5,21.1,30.04,NNE,22,3.7,5.8,83,0.00,CLR,CLR,0.00,WeatherDisplay:10.37,2013-03-05 14:35:00,
2013-03-05 08:40:00,25.3,20.9,30.04,NNE,22,3.5,4.6,83,0.00,CLR,CLR,0.00,WeatherDisplay:10.37,2013-03-05 14:40:00,
2013-03-05 08:45:00,25.5,21.1,30.05,NNE,22,7.6,8.1,83,0.00,CLR,CLR,0.00,WeatherDisplay:10.37,2013-03-05 14:45:00,
2013-03-05 08:50:00,25.3,20.9,30.05,NNE,22,3.2,3.5,83,0.00,CLR,CLR,0.00,WeatherDisplay:10.37,2013-03-05 14:50:00,
2013-03-05 08:56:00,25.5,21.1,30.05,NE,45,3.3,5.8,83,0.00,CLR,CLR,0.00,WeatherDisplay:10.37,2013-03-05 14:56:00,
2013-03-05 09:01:00,25.7,21.3,30.05,North,0,2.4,4.6,83,0.00,CLR,CLR,0.00,WeatherDisplay:10.37,2013-03-05 15:01:00,
2013-03-05 09:06:00,25.9,21.4,30.05,North,0,3.9,5.1,83,0.00,CLR,CLR,0.00,WeatherDisplay:10.37,2013-03-05 15:06:00,
2013-03-05 09:11:00,26.2,21.8,30.05,North,0,5.3,6.9,83,0.00,CLR,CLR,0.00,WeatherDisplay:10.37,2013-03-05 15:11:00,
2013-03-05 09:17:00,26.4,21.7,30.05,North,0,5.9,6.9,82,0.00,CLR,CLR,0.00,WeatherDisplay:10.37,2013-03-05 15:17:00,
2013-03-05 09:22:00,26.4,21.7,30.06,North,0,5.2,5.8,82,0.00,CLR,CLR,0.00,WeatherDisplay:10.37,2013-03-05 15:22:00,
2013-03-05 09:27:00,26.4,21.7,30.06,North,0,7.2,9.2,82,0.00,CLR,CLR,0.00,WeatherDisplay:10.37,2013-03-05 15:27:00,
2013-03-05 09:32:00,26.4,21.7,30.06,North,0,6.3,9.2,82,0.00,CLR,CLR,0.00,WeatherDisplay:10.37,2013-03-05 15:32:00,
2013-03-05 09:38:00,26.4,21.7,30.06,North,0,6.3,9.2,82,0.00,CLR,CLR,0.00,WeatherDisplay:10.37,2013-03-05 15:38:00,
2013-03-05 09:43:00,26.8,22.0,30.06,North,0,4.8,5.8,82,0.00,CLR,CLR,0.00,WeatherDisplay:10.37,2013-03-05 15:43:00,
2013-03-05 09:48:00,27.3,22.5,30.07,North,0,4.7,6.9,82,0.00,CLR,CLR,0.00,WeatherDisplay:10.37,2013-03-05 15:48:00,
2013-03-05 09:53:00,27.7,22.6,30.07,NNE,22,6.3,9.2,81,0.00,CLR,CLR,0.00,WeatherDisplay:10.37,2013-03-05 15:53:00,
2013-03-05 09:58:00,28.0,22.7,30.06,NNE,22,4.6,6.9,80,0.00,CLR,CLR,0.00,WeatherDisplay:10.37,2013-03-05 15:58:00,
2013-03-05 10:03:00,28.2,22.8,30.07,North,0,4.9,5.8,80,0.00,CLR,CLR,0.00,WeatherDisplay:10.37,2013-03-05 16:03:00,
2013-03-05 10:09:00,28.6,23.2,30.07,North,0,6.8,8.1,80,0.00,CLR,CLR,0.00,WeatherDisplay:10.37,2013-03-05 16:09:00,
2013-03-05 10:14:00,28.8,23.1,30.07,North,0,7.5,8.3,79,0.00,CLR,CLR,0.00,WeatherDisplay:10.37,2013-03-05 16:14:00,
2013-03-05 10:19:00,28.6,22.9,30.07,NE,45,4.3,6.9,79,0.00,CLR,CLR,0.00,WeatherDisplay:10.37,2013-03-05 16:19:00,
2013-03-05 10:24:00,28.8,23.1,30.07,NNE,22,5.3,9.2,79,0.00,CLR,CLR,0.00,WeatherDisplay:10.37,2013-03-05 16:24:00,
2013-03-05 10:29:00,28.8,22.8,30.08,NNE,22,4.7,6.9,78,0.00,CLR,CLR,0.00,WeatherDisplay:10.37,2013-03-05 16:29:00,
2013-03-05 10:35:00,29.1,23.1,30.08,NNE,22,8.4,11.8,78,0.00,CLR,CLR,0.00,WeatherDisplay:10.37,2013-03-05 16:35:00,
2013-03-05 10:40:00,29.1,22.8,30.08,NNE,22,6.7,11.5,77,0.00,CLR,CLR,0.00,WeatherDisplay:10.37,2013-03-05 16:40:00,
2013-03-05 10:45:00,29.1,22.8,30.08,NE,45,5.8,9.2,77,0.00,CLR,CLR,0.00,WeatherDisplay:10.37,2013-03-05 16:45:00,
2013-03-05 10:50:00,29.3,23.0,30.08,NNE,22,4.8,6.9,77,0.00,CLR,CLR,0.00,WeatherDisplay:10.37,2013-03-05 16:50:00,
2013-03-05 10:56:00,29.8,23.5,30.08,North,0,5.9,8.1,77,0.00,CLR,CLR,0.00,WeatherDisplay:10.37,2013-03-05 16:56:00,
2013-03-05 11:01:00,30.4,24.0,30.09,North,0,7.2,8.1,77,0.00,CLR,CLR,0.00,WeatherDisplay:10.37,2013-03-05 17:01:00,
2013-03-05 11:06:00,30.7,24.1,30.09,ENE,68,3.5,10.4,76,0.00,CLR,CLR,0.00,WeatherDisplay:10.37,2013-03-05 17:06:00,
2013-03-05 11:11:00,31.1,24.1,30.09,NNE,22,7.7,8.1,75,0.00,CLR,CLR,0.00,WeatherDisplay:10.37,2013-03-05 17:11:00,
2013-03-05 11:16:00,31.3,24.3,30.09,NNE,22,4.0,5.8,75,0.00,CLR,CLR,0.00,WeatherDisplay:10.37,2013-03-05 17:16:00,
2013-03-05 11:22:00,31.6,24.3,30.09,North,0,5.1,9.2,74,0.00,CLR,CLR,0.00,WeatherDisplay:10.37,2013-03-05 17:22:00,
2013-03-05 11:27:00,31.6,24.3,30.09,NNE,22,3.5,6.7,74,0.00,CLR,CLR,0.00,WeatherDisplay:10.37,2013-03-05 17:27:00,
2013-03-05 11:32:00,31.8,24.1,30.09,North,0,7.2,10.4,73,0.00,CLR,CLR,0.00,WeatherDisplay:10.37,2013-03-05 17:32:00,
2013-03-05 11:37:00,31.6,24.0,30.09,NE,45,3.0,5.8,73,0.00,CLR,CLR,0.00,WeatherDisplay:10.37,2013-03-05 17:37:00,
2013-03-05 11:43:00,32.2,24.5,30.09,NE,45,4.3,6.9,73,0.00,CLR,CLR,0.00,WeatherDisplay:10.37,2013-03-05 17:43:00,
2013-03-05 11:48:00,32.9,24.9,30.09,NW,315,5.6,8.1,72,0.00,CLR,CLR,0.00,WeatherDisplay:10.37,2013-03-05 17:48:00,
2013-03-05 11:53:00,33.4,25.4,30.09,NNE,22,7.6,11.5,72,0.00,CLR,CLR,0.00,WeatherDisplay:10.37,2013-03-05 17:53:00,
2013-03-05 11:58:00,33.3,24.5,30.09,NNE,22,7.0,8.1,70,0.00,CLR,CLR,0.00,WeatherDisplay:10.37,2013-03-05 17:58:00,
2013-03-05 12:04:00,32.9,24.2,30.09,NNE,22,4.4,6.3,70,0.00,CLR,CLR,0.00,WeatherDisplay:10.37,2013-03-05 18:04:00,
2013-03-05 12:09:00,33.4,25.0,30.09,ENE,68,6.3,6.9,71,0.00,CLR,CLR,0.00,WeatherDisplay:10.37,2013-03-05 18:09:00,
2013-03-05 12:14:00,33.6,24.9,30.10,North,0,5.8,8.1,70,0.00,CLR,CLR,0.00,WeatherDisplay:10.37,2013-03-05 18:14:00,
2013-03-05 12:19:00,34.0,24.9,30.10,North,0,3.4,4.6,69,0.00,CLR,CLR,0.00,WeatherDisplay:10.37,2013-03-05 18:19:00,
2013-03-05 12:25:00,34.3,25.2,30.10,NNE,22,6.4,9.2,69,0.00,CLR,CLR,0.00,WeatherDisplay:10.37,2013-03-05 18:25:00,
2013-03-05 12:30:00,34.3,24.9,30.10,North,0,6.9,10.4,68,0.00,CLR,CLR,0.00,WeatherDisplay:10.37,2013-03-05 18:30:00,
2013-03-05 12:35:00,34.3,24.5,30.10,North,0,7.2,12.1,67,0.00,CLR,CLR,0.00,WeatherDisplay:10.37,2013-03-05 18:35:00,
2013-03-05 12:40:00,34.2,24.3,30.10,North,0,8.9,11.5,67,0.00,CLR,CLR,0.00,WeatherDisplay:10.37,2013-03-05 18:40:00,
2013-03-05 12:45:00,34.2,24.7,30.10,NNE,22,6.8,10.4,68,0.00,CLR,CLR,0.00,WeatherDisplay:10.37,2013-03-05 18:45:00,
2013-03-05 12:51:00,34.9,25.0,30.10,North,0,6.6,6.9,67,0.00,CLR,CLR,0.00,WeatherDisplay:10.37,2013-03-05 18:51:00,
2013-03-05 12:56:00,34.9,24.7,30.10,North,0,4.2,4.6,66,0.00,CLR,CLR,0.00,WeatherDisplay:10.37,2013-03-05 18:56:00,
2013-03-05 13:01:00,35.4,24.8,30.10,North,0,5.6,6.9,65,0.00,CLR,CLR,0.00,WeatherDisplay:10.37,2013-03-05 19:01:00,
2013-03-05 13:06:00,36.1,25.5,30.10,North,0,7.7,10.4,65,0.00,CLR,CLR,0.00,WeatherDisplay:10.37,2013-03-05 19:06:00,
2013-03-05 13:11:00,36.1,25.1,30.10,NNE,22,7.6,9.2,64,0.00,CLR,CLR,0.00,WeatherDisplay:10.37,2013-03-05 19:11:00,
2013-03-05 13:17:00,36.1,25.1,30.10,NNE,22,5.8,5.8,64,0.00,CLR,CLR,0.00,WeatherDisplay:10.37,2013-03-05 19:17:00,
2013-03-05 13:22:00,36.5,25.8,30.10,NW,315,4.8,6.9,65,0.00,CLR,CLR,0.00,WeatherDisplay:10.37,2013-03-05 19:22:00,
2013-03-05 13:27:00,37.2,25.8,30.10,NW,315,7.2,9.2,63,0.00,CLR,CLR,0.00,WeatherDisplay:10.37,2013-03-05 19:27:00,
2013-03-05 13:32:00,36.1,24.7,30.10,NNE,22,8.4,10.4,63,0.00,CLR,CLR,0.00,WeatherDisplay:10.37,2013-03-05 19:32:00,
2013-03-05 13:38:00,35.2,24.6,30.10,NNW,338,4.1,5.8,65,0.00,CLR,CLR,0.00,WeatherDisplay:10.37,2013-03-05 19:38:00,
2013-03-05 13:43:00,35.8,25.5,30.10,North,0,6.8,10.4,66,0.00,CLR,CLR,0.00,WeatherDisplay:10.37,2013-03-05 19:43:00,
2013-03-05 13:48:00,36.3,25.7,30.10,North,0,7.0,10.4,65,0.00,CLR,CLR,0.00,WeatherDisplay:10.37,2013-03-05 19:48:00,
2013-03-05 13:53:00,36.3,25.3,30.10,NW,315,11.2,13.8,64,0.00,CLR,CLR,0.00,WeatherDisplay:10.37,2013-03-05 19:53:00,
2013-03-05 13:58:00,36.1,25.1,30.10,NW,315,7.8,11.5,64,0.00,CLR,CLR,0.00,WeatherDisplay:10.37,2013-03-05 19:58:00,
2013-03-05 14:03:00,35.8,24.4,30.10,North,0,7.6,10.4,63,0.00,CLR,CLR,0.00,WeatherDisplay:10.37,2013-03-05 20:03:00,
2013-03-05 14:09:00,35.4,23.7,30.10,North,0,8.2,11.5,62,0.00,CLR,CLR,0.00,WeatherDisplay:10.37,2013-03-05 20:09:00,
2013-03-05 14:14:00,34.9,23.2,30.11,NNE,22,8.4,10.9,62,0.00,CLR,CLR,0.00,WeatherDisplay:10.37,2013-03-05 20:14:00,
2013-03-05 14:19:00,34.5,23.2,30.11,NNW,338,7.4,10.4,63,0.00,CLR,CLR,0.00,WeatherDisplay:10.37,2013-03-05 20:19:00,
2013-03-05 14:24:00,34.3,23.0,30.12,North,0,8.1,10.4,63,0.00,CLR,CLR,0.00,WeatherDisplay:10.37,2013-03-05 20:24:00,
2013-03-05 14:30:00,33.8,22.9,30.12,NNW,338,9.8,11.5,64,0.00,CLR,CLR,0.00,WeatherDisplay:10.37,2013-03-05 20:30:00,
2013-03-05 14:35:00,33.6,22.7,30.12,NNE,22,8.6,12.7,64,0.00,CLR,CLR,0.00,WeatherDisplay:10.37,2013-03-05 20:35:00,
2013-03-05 14:40:00,33.3,22.8,30.12,North,0,6.9,6.9,65,0.00,CLR,CLR,0.00,WeatherDisplay:10.37,2013-03-05 20:40:00,
2013-03-05 14:45:00,33.4,23.3,30.12,NE,45,7.6,9.2,66,0.00,CLR,CLR,0.00,WeatherDisplay:10.37,2013-03-05 20:45:00,
2013-03-05 14:50:00,33.6,23.5,30.12,North,0,7.4,10.4,66,0.00,CLR,CLR,0.00,WeatherDisplay:10.37,2013-03-05 20:50:00,
2013-03-05 14:56:00,33.6,23.5,30.12,NNE,22,6.9,8.3,66,0.00,CLR,CLR,0.00,WeatherDisplay:10.37,2013-03-05 20:56:00,
2013-03-05 15:01:00,33.6,23.1,30.13,North,0,12.2,13.8,65,0.00,CLR,CLR,0.00,WeatherDisplay:10.37,2013-03-05 21:01:00,
2013-03-05 15:06:00,33.6,23.5,30.13,NNE,22,9.6,13.8,66,0.00,CLR,CLR,0.00,WeatherDisplay:10.37,2013-03-05 21:06:00,
2013-03-05 15:11:00,34.2,24.0,30.13,North,0,10.4,17.3,66,0.00,CLR,CLR,0.00,WeatherDisplay:10.37,2013-03-05 21:11:00,
2013-03-05 15:17:00,33.6,23.1,30.13,North,0,8.6,15.0,65,0.00,CLR,CLR,0.00,WeatherDisplay:10.37,2013-03-05 21:17:00,
2013-03-05 15:22:00,33.6,22.7,30.13,NNW,338,8.4,9.2,64,0.00,CLR,CLR,0.00,WeatherDisplay:10.37,2013-03-05 21:22:00,
2013-03-05 15:27:00,34.3,23.4,30.14,NW,315,6.1,10.4,64,0.00,CLR,CLR,0.00,WeatherDisplay:10.37,2013-03-05 21:27:00,
2013-03-05 15:32:00,34.9,23.2,30.14,NW,315,10.6,11.5,62,0.00,CLR,CLR,0.02,WeatherDisplay:10.37,2013-03-05 21:32:00,
2013-03-05 15:37:00,34.3,23.0,30.14,North,0,9.1,9.2,63,0.02,RA,RA,0.02,WeatherDisplay:10.37,2013-03-05 21:37:00,
2013-03-05 15:42:00,33.4,22.2,30.14,North,0,9.4,11.5,63,0.02,,,0.02,WeatherDisplay:10.37,2013-03-05 21:42:00,
2013-03-05 15:47:00,32.4,21.9,30.15,NNW,338,8.0,9.2,65,0.02,CLR,CLR,0.02,WeatherDisplay:10.37,2013-03-05 21:47:00,
2013-03-05 15:53:00,32.4,21.9,30.16,NNE,22,9.8,15.0,65,0.02,CLR,CLR,0.02,WeatherDisplay:10.37,2013-03-05 21:53:00,
2013-03-05 15:58:00,32.2,22.1,30.16,North,0,6.7,10.4,66,0.02,CLR,CLR,0.02,WeatherDisplay:10.37,2013-03-05 21:58:00,
2013-03-05 16:03:00,33.3,23.5,30.16,NNW,338,9.3,9.8,67,0.02,CLR,CLR,0.02,WeatherDisplay:10.37,2013-03-05 22:03:00,
2013-03-05 16:08:00,33.4,22.9,30.16,NNW,338,7.4,9.2,65,0.02,CLR,CLR,0.02,WeatherDisplay:10.37,2013-03-05 22:08:00,
2013-03-05 16:13:00,32.2,21.7,30.17,NNE,22,9.9,11.5,65,0.02,CLR,CLR,0.02,WeatherDisplay:10.37,2013-03-05 22:13:00,
2013-03-05 16:19:00,31.3,21.2,30.17,NNE,22,7.8,11.5,66,0.02,CLR,CLR,0.02,WeatherDisplay:10.37,2013-03-05 22:19:00,
2013-03-05 16:24:00,30.9,21.2,30.16,North,0,5.2,11.5,67,0.02,CLR,CLR,0.02,WeatherDisplay:10.37,2013-03-05 22:24:00,
2013-03-05 16:29:00,30.4,20.7,30.16,North,0,8.0,11.5,67,0.02,CLR,CLR,0.02,WeatherDisplay:10.37,2013-03-05 22:29:00,
2013-03-05 16:34:00,30.2,21.2,30.17,North,0,6.8,6.9,69,0.00,CLR,CLR,0.02,WeatherDisplay:10.37,2013-03-05 22:34:00,
2013-03-05 16:39:00,30.4,21.8,30.17,WNW,292,9.3,11.5,70,0.00,CLR,CLR,0.02,WeatherDisplay:10.37,2013-03-05 22:39:00,
2013-03-05 16:45:00,30.7,22.1,30.17,NNE,22,6.6,8.1,70,0.00,CLR,CLR,0.02,WeatherDisplay:10.37,2013-03-05 22:45:00,
2013-03-05 16:50:00,31.1,22.5,30.18,NNW,338,7.7,10.1,70,0.00,CLR,CLR,0.02,WeatherDisplay:10.37,2013-03-05 22:50:00,
2013-03-05 16:55:00,31.3,22.6,30.18,NNW,338,7.6,11.5,70,0.00,CLR,CLR,0.02,WeatherDisplay:10.37,2013-03-05 22:55:00,
2013-03-05 17:00:00,30.9,22.3,30.19,North,0,6.0,6.9,70,0.00,CLR,CLR,0.02,WeatherDisplay:10.37,2013-03-05 23:00:00,
2013-03-05 17:06:00,30.9,22.3,30.19,NNW,338,8.5,11.5,70,0.00,CLR,CLR,0.02,WeatherDisplay:10.37,2013-03-05 23:06:00,
2013-03-05 17:11:00,30.6,21.9,30.19,NW,315,6.9,9.2,70,0.00,CLR,CLR,0.02,WeatherDisplay:10.37,2013-03-05 23:11:00,
2013-03-05 17:16:00,30.0,21.8,30.19,NNW,338,8.4,9.2,71,0.00,CLR,CLR,0.02,WeatherDisplay:10.37,2013-03-05 23:16:00,
2013-03-05 17:21:00,29.7,21.4,30.19,NNW,338,7.9,10.4,71,0.00,CLR,CLR,0.02,WeatherDisplay:10.37,2013-03-05 23:21:00,
2013-03-05 17:27:00,29.1,21.2,30.20,NNW,338,8.6,10.4,72,0.00,CLR,CLR,0.02,WeatherDisplay:10.37,2013-03-05 23:27:00,
2013-03-05 17:32:00,28.9,21.0,30.19,NNW,338,9.3,9.3,72,0.00,CLR,CLR,0.02,WeatherDisplay:10.37,2013-03-05 23:32:00,
2013-03-05 17:37:00,28.2,20.3,30.20,NNE,22,3.7,8.1,72,0.00,CLR,CLR,0.02,WeatherDisplay:10.37,2013-03-05 23:37:00,
2013-03-05 17:42:00,28.0,20.2,30.20,NW,315,5.9,8.1,72,0.00,CLR,CLR,0.02,WeatherDisplay:10.37,2013-03-05 23:42:00,
2013-03-05 17:47:00,27.7,20.2,30.20,NNW,338,7.5,10.4,73,0.00,CLR,CLR,0.02,WeatherDisplay:10.37,2013-03-05 23:47:00,
2013-03-05 17:52:00,27.1,19.6,30.20,NNW,338,7.2,9.2,73,0.00,CLR,CLR,0.02,WeatherDisplay:10.37,2013-03-05 23:52:00,
2013-03-05 17:58:00,26.8,19.6,30.20,NW,315,5.5,6.9,74,0.00,CLR,CLR,0.02,WeatherDisplay:10.37,2013-03-05 23:58:00,
2013-03-05 18:03:00,26.4,19.3,30.21,NW,315,3.0,4.9,74,0.00,CLR,CLR,0.02,WeatherDisplay:10.37,2013-03-06 00:03:00,
2013-03-05 18:08:00,26.1,19.2,30.21,West,270,3.4,4.6,75,0.00,CLR,CLR,0.02,WeatherDisplay:10.37,2013-03-06 00:08:00,
2013-03-05 18:13:00,25.7,19.2,30.21,NNW,338,0.5,2.5,76,0.00,CLR,CLR,0.02,WeatherDisplay:10.37,2013-03-06 00:13:00,
2013-03-05 18:19:00,25.5,18.7,30.21,WNW,292,1.2,3.5,75,0.00,CLR,CLR,0.02,WeatherDisplay:10.37,2013-03-06 00:19:00,
2013-03-05 18:24:00,25.2,18.7,30.22,NNW,338,2.6,4.6,76,0.00,CLR,CLR,0.02,WeatherDisplay:10.37,2013-03-06 00:24:00,
2013-03-05 18:29:00,25.2,19.0,30.22,NNW,338,2.2,3.5,77,0.00,CLR,CLR,0.02,WeatherDisplay:10.37,2013-03-06 00:29:00,
2013-03-05 18:34:00,25.2,19.0,30.22,NNW,338,4.1,6.9,77,0.00,CLR,CLR,0.02,WeatherDisplay:10.37,2013-03-06 00:34:00,
2013-03-05 18:39:00,25.3,19.4,30.22,NNE,22,4.1,5.8,78,0.00,CLR,CLR,0.02,WeatherDisplay:10.37,2013-03-06 00:39:00,
2013-03-05 18:45:00,25.5,19.6,30.23,North,0,5.7,8.0,78,0.00,CLR,CLR,0.02,WeatherDisplay:10.37,2013-03-06 00:45:00,
2013-03-05 18:50:00,25.7,20.1,30.22,NNW,338,6.3,9.2,79,0.00,CLR,CLR,0.02,WeatherDisplay:10.37,2013-03-06 00:50:00,
2013-03-05 18:55:00,25.9,20.3,30.23,NNW,338,4.5,5.8,79,0.00,CLR,CLR,0.02,WeatherDisplay:10.37,2013-03-06 00:55:00,
2013-03-05 19:00:00,26.1,20.4,30.23,NE,45,3.7,4.6,79,0.00,CLR,CLR,0.02,WeatherDisplay:10.37,2013-03-06 01:00:00,
2013-03-05 19:06:00,26.1,20.4,30.23,NNE,22,5.1,5.8,79,0.00,CLR,CLR,0.02,WeatherDisplay:10.37,2013-03-06 01:06:00,
2013-03-05 19:11:00,26.2,20.6,30.23,NNE,22,4.5,5.8,79,0.00,CLR,CLR,0.02,WeatherDisplay:10.37,2013-03-06 01:11:00,
2013-03-05 19:16:00,26.2,20.9,30.24,North,0,4.3,8.1,80,0.00,CLR,CLR,0.02,WeatherDisplay:10.37,2013-03-06 01:16:00,
2013-03-05 19:21:00,26.2,20.9,30.24,NE,45,5.2,5.8,80,0.00,CLR,CLR,0.02,WeatherDisplay:10.37,2013-03-06 01:21:00,
2013-03-05 19:26:00,26.2,20.9,30.23,North,0,6.2,8.1,80,0.00,CLR,CLR,0.02,WeatherDisplay:10.37,2013-03-06 01:26:00,
2013-03-05 19:32:00,26.2,20.9,30.24,NNW,338,3.6,4.6,80,0.00,CLR,CLR,0.02,WeatherDisplay:10.37,2013-03-06 01:32:00,
2013-03-05 19:37:00,26.2,20.9,30.24,NNE,22,4.0,5.8,80,0.00,CLR,CLR,0.02,WeatherDisplay:10.37,2013-03-06 01:37:00,
2013-03-05 19:42:00,26.2,20.9,30.24,North,0,3.5,4.7,80,0.00,CLR,CLR,0.02,WeatherDisplay:10.37,2013-03-06 01:42:00,
2013-03-05 19:47:00,26.2,20.9,30.24,NNE,22,4.7,7.6,80,0.00,CLR,CLR,0.02,WeatherDisplay:10.37,2013-03-06 01:47:00,
2013-03-05 19:53:00,26.2,20.9,30.24,North,0,4.7,6.0,80,0.00,CLR,CLR,0.02,WeatherDisplay:10.37,2013-03-06 01:53:00,
2013-03-05 19:58:00,26.2,20.9,30.24,NNW,338,5.1,8.1,80,0.00,CLR,CLR,0.02,WeatherDisplay:10.37,2013-03-06 01:58:00,
2013-03-05 20:03:00,26.1,20.7,30.25,NNW,338,4.2,5.8,80,0.00,CLR,CLR,0.02,WeatherDisplay:10.37,2013-03-06 02:03:00,
2013-03-05 20:08:00,26.2,20.9,30.25,NNW,338,5.3,6.9,80,0.00,CLR,CLR,0.02,WeatherDisplay:10.37,2013-03-06 02:08:00,
2013-03-05 20:14:00,26.1,21.0,30.25,NNW,338,5.8,8.1,81,0.00,CLR,CLR,0.02,WeatherDisplay:10.37,2013-03-06 02:14:00,
2013-03-05 20:19:00,26.2,21.2,30.26,North,0,3.5,4.6,81,0.00,CLR,CLR,0.02,WeatherDisplay:10.37,2013-03-06 02:19:00,
2013-03-05 20:24:00,26.1,21.0,30.25,WNW,292,4.5,6.0,81,0.00,CLR,CLR,0.02,WeatherDisplay:10.37,2013-03-06 02:24:00,
2013-03-05 20:29:00,26.1,21.0,30.25,North,0,6.3,8.7,81,0.00,CLR,CLR,0.02,WeatherDisplay:10.37,2013-03-06 02:29:00,
2013-03-05 20:34:00,25.9,20.9,30.25,NNW,338,6.0,6.9,81,0.00,CLR,CLR,0.02,WeatherDisplay:10.37,2013-03-06 02:34:00,
2013-03-05 20:40:00,25.7,20.7,30.26,NNW,338,7.9,9.2,81,0.00,CLR,CLR,0.02,WeatherDisplay:10.37,2013-03-06 02:40:00,
2013-03-05 20:45:00,25.5,20.5,30.26,NNW,338,8.6,10.4,81,0.00,CLR,CLR,0.02,WeatherDisplay:10.37,2013-03-06 02:45:00,
2013-03-05 20:50:00,25.5,20.5,30.26,North,0,4.0,10.4,81,0.00,CLR,CLR,0.02,WeatherDisplay:10.37,2013-03-06 02:50:00,
2013-03-05 20:55:00,25.5,20.2,30.26,North,0,8.6,10.4,80,0.00,CLR,CLR,0.02,WeatherDisplay:10.37,2013-03-06 02:55:00,
2013-03-05 21:00:00,25.3,20.0,30.26,NNE,22,5.9,6.9,80,0.00,CLR,CLR,0.02,WeatherDisplay:10.37,2013-03-06 03:00:00,
2013-03-05 21:05:00,25.2,19.9,30.26,North,0,3.8,5.8,80,0.00,CLR,CLR,0.02,WeatherDisplay:10.37,2013-03-06 03:05:00,
2013-03-05 21:10:00,25.0,19.4,30.26,NNE,22,7.5,9.2,79,0.00,CLR,CLR,0.02,WeatherDisplay:10.37,2013-03-06 03:10:00,
2013-03-05 21:15:00,24.6,19.0,30.27,North,0,5.4,8.1,79,0.00,CLR,CLR,0.02,WeatherDisplay:10.37,2013-03-06 03:15:00,
2013-03-05 21:21:00,24.4,18.9,30.27,North,0,4.6,5.8,79,0.00,CLR,CLR,0.02,WeatherDisplay:10.37,2013-03-06 03:21:00,
2013-03-05 21:26:00,23.9,18.3,30.26,NNE,22,3.8,6.9,79,0.00,CLR,CLR,0.02,WeatherDisplay:10.37,2013-03-06 03:26:00,
2013-03-05 21:31:00,23.5,18.0,30.27,North,0,3.3,5.8,79,0.00,CLR,CLR,0.02,WeatherDisplay:10.37,2013-03-06 03:31:00,
2013-03-05 21:36:00,23.2,17.6,30.26,NNE,22,3.0,3.5,79,0.00,CLR,CLR,0.02,WeatherDisplay:10.37,2013-03-06 03:36:00,
2013-03-05 21:42:00,22.8,17.6,30.27,NNW,338,3.2,4.6,80,0.00,CLR,CLR,0.02,WeatherDisplay:10.37,2013-03-06 03:42:00,
2013-03-05 21:47:00,22.3,17.0,30.27,North,0,4.0,4.6,80,0.00,CLR,CLR,0.02,WeatherDisplay:10.37,2013-03-06 03:47:00,
2013-03-05 21:52:00,21.9,16.7,30.27,NNW,338,3.2,3.5,80,0.00,CLR,CLR,0.02,WeatherDisplay:10.37,2013-03-06 03:52:00,
2013-03-05 21:57:00,21.7,16.5,30.27,NW,315,2.8,3.5,80,0.00,CLR,CLR,0.02,WeatherDisplay:10.37,2013-03-06 03:57:00,
2013-03-05 22:02:00,21.6,16.6,30.28,NW,315,3.5,4.6,81,0.00,CLR,CLR,0.02,WeatherDisplay:10.37,2013-03-06 04:02:00,
2013-03-05 22:08:00,21.6,16.6,30.27,NW,315,1.3,2.3,81,0.00,CLR,CLR,0.02,WeatherDisplay:10.37,2013-03-06 04:08:00,
2013-03-05 22:13:00,21.6,16.6,30.28,NW,315,0.3,1.2,81,0.00,CLR,CLR,0.02,WeatherDisplay:10.37,2013-03-06 04:13:00,
2013-03-05 22:18:00,21.7,17.1,30.28,WNW,292,2.7,3.6,82,0.00,CLR,CLR,0.02,WeatherDisplay:10.37,2013-03-06 04:18:00,
2013-03-05 22:23:00,21.9,17.3,30.28,NNW,338,0.6,2.3,82,0.00,CLR,CLR,0.02,WeatherDisplay:10.37,2013-03-06 04:23:00,
2013-03-05 22:28:00,22.1,17.4,30.28,North,0,2.0,3.5,82,0.00,CLR,CLR,0.02,WeatherDisplay:10.37,2013-03-06 04:28:00,
2013-03-05 22:34:00,22.3,17.6,30.29,NW,315,0.9,2.3,82,0.00,CLR,CLR,0.02,WeatherDisplay:10.37,2013-03-06 04:34:00,
2013-03-05 22:39:00,22.5,17.8,30.29,WNW,292,1.3,2.3,82,0.00,CLR,CLR,0.02,WeatherDisplay:10.37,2013-03-06 04:39:00,
2013-03-05 22:44:00,22.6,18.0,30.29,NNW,338,2.1,3.5,82,0.00,CLR,CLR,0.02,WeatherDisplay:10.37,2013-03-06 04:44:00,
2013-03-05 22:49:00,22.8,18.1,30.29,North,0,2.6,2.6,82,0.00,CLR,CLR,0.02,WeatherDisplay:10.37,2013-03-06 04:49:00,
2013-03-05 22:54:00,22.8,18.1,30.28,NNW,338,1.5,2.3,82,0.00,CLR,CLR,0.02,WeatherDisplay:10.37,2013-03-06 04:54:00,
2013-03-05 22:59:00,22.8,18.1,30.29,NW,315,3.0,4.6,82,0.00,CLR,CLR,0.02,WeatherDisplay:10.37,2013-03-06 04:59:00,
2013-03-05 23:00:00,22.8,18.1,30.29,NNW,338,3.0,4.6,82,0.00,CLR,CLR,0.02,WeatherDisplay:10.37,2013-03-06 05:00:00,
2013-03-05 23:02:00,22.8,18.1,30.29,North,0,3.6,4.0,82,0.00,CLR,CLR,0.02,WeatherDisplay:10.37,2013-03-06 05:02:00,
2013-03-05 23:03:00,23.0,18.3,30.29,NNW,338,2.7,3.5,82,0.00,CLR,CLR,0.02,WeatherDisplay:10.37,2013-03-06 05:03:00,
2013-03-05 23:08:00,23.0,18.3,30.29,NNW,338,2.3,2.3,82,0.00,CLR,CLR,0.02,WeatherDisplay:10.37,2013-03-06 05:08:00,
2013-03-05 23:13:00,23.0,18.3,30.29,NNW,338,1.9,3.5,82,0.00,CLR,CLR,0.02,WeatherDisplay:10.37,2013-03-06 05:13:00,
2013-03-05 23:18:00,23.2,18.5,30.29,NNW,338,3.5,4.6,82,0.00,CLR,CLR,0.02,WeatherDisplay:10.37,2013-03-06 05:18:00,
2013-03-05 23:23:00,23.2,18.5,30.29,NNW,338,5.5,6.0,82,0.00,CLR,CLR,0.02,WeatherDisplay:10.37,2013-03-06 05:23:00,
2013-03-05 23:29:00,23.2,18.5,30.30,NNW,338,4.0,4.6,82,0.00,CLR,CLR,0.02,WeatherDisplay:10.37,2013-03-06 05:29:00,
2013-03-05 23:34:00,23.2,18.2,30.29,NNE,22,3.2,3.5,81,0.00,CLR,CLR,0.02,WeatherDisplay:10.37,2013-03-06 05:34:00,
2013-03-05 23:39:00,23.2,18.2,30.30,NNW,338,5.9,6.9,81,0.00,CLR,CLR,0.02,WeatherDisplay:10.37,2013-03-06 05:39:00,
2013-03-05 23:44:00,23.2,18.2,30.30,North,0,3.1,4.6,81,0.00,CLR,CLR,0.02,WeatherDisplay:10.37,2013-03-06 05:44:00,
2013-03-05 23:50:00,23.2,18.2,30.30,North,0,2.2,3.5,81,0.00,CLR,CLR,0.02,WeatherDisplay:10.37,2013-03-06 05:50:00,
2013-03-05 23:55:00,23.2,18.2,30.30,North,0,3.9,4.6,81,0.00,CLR,CLR,0.02,WeatherDisplay:10.37,2013-03-06 05:55:00,